JM-0002 weather

Manchioneal Airstrip
Portland, Jamaica

Public forecast

Using degrees Celsius for public forecast. Weather courtesy of forecast.io.

METAR (pilot weather report)

Closest report is Norman Manley International Airport, 29.7 nm (55.0 km) WSW. Retrieved 2019/03/25 20:00 UTC (35 minutes ago):

MKJP 252000Z 13010KT 9999 FEW020 FEW022CB 29/20 Q1013

TAF (pilot weather forecast)

Closest forecast is Norman Manley International Airport, 29.7 nm (55.0 km) WSW. Retrieved 2019/03/25 18:13 UTC (2 hours ago):

TAF MKJP 251715Z 2518/2618 18008KT 9999 FEW020 TEMPO 2520/2523 SCT020 FEW024CB BECMG 2601/2603 35005KT BECMG 2614/2616 16013KT